Time;durP1;ratioP1;P1;durP2;ratioP2;P2;SDS_P1;SDS_P2;PMS_P1;PMS_P2;Temp;Humidity;BMP_temperature;BMP_pressure;BME280_temperature;BME280_humidity;BME280_pressure;Samples;Min_cycle;Max_cycle;Signal;HPM_P1;HPM_P2
2022/08/04 00:01:57;;;;;;;4.43;3.03;;;;;;;15.67;68.26;93661.50;5110449;28;20035;-57
2022/08/04 00:04:43;;;;;;;3.45;3.15;;;;;;;15.62;68.42;93656.91;5099031;28;20056;-55
2022/08/04 00:07:16;;;;;;;4.05;3.17;;;;;;;15.70;68.08;93645.69;5111845;28;20041;-55
2022/08/04 00:09:58;;;;;;;5.13;3.65;;;;;;;15.62;69.44;93654.13;5110906;28;20045;-51
2022/08/04 00:12:25;;;;;;;3.80;3.40;;;;;;;15.70;68.96;93654.03;5109140;28;20027;-52
2022/08/04 00:14:54;;;;;;;4.05;2.80;;;;;;;15.78;68.21;93655.41;5101719;28;20024;-54
2022/08/04 00:17:23;;;;;;;5.60;3.10;;;;;;;15.75;67.81;93650.25;5098892;28;20030;-53
2022/08/04 00:19:54;;;;;;;7.18;4.30;;;;;;;15.57;67.62;93648.81;5110535;28;20474;-53
2022/08/04 00:22:24;;;;;;;4.00;3.53;;;;;;;15.58;66.75;93644.72;5106785;28;20026;-50
2022/08/04 00:24:49;;;;;;;4.10;3.22;;;;;;;15.56;66.93;93644.56;5089779;28;20126;-49
2022/08/04 00:27:15;;;;;;;3.47;3.17;;;;;;;15.43;67.18;93653.25;5090921;28;20066;-50
2022/08/04 00:29:40;;;;;;;3.40;3.10;;;;;;;15.44;67.41;93657.53;5091151;28;20024;-49
2022/08/04 00:32:07;;;;;;;4.45;3.28;;;;;;;15.32;68.34;93668.41;5091149;28;20394;-54
2022/08/04 00:34:33;;;;;;;3.60;2.97;;;;;;;15.42;67.89;93665.69;5093101;28;20035;-56
2022/08/04 00:36:58;;;;;;;3.85;3.35;;;;;;;15.42;68.09;93655.28;5101798;28;20421;-51
2022/08/04 00:39:24;;;;;;;7.07;4.22;;;;;;;15.29;68.53;93663.25;5104303;28;20023;-55
2022/08/04 00:42:18;;;;;;;8.43;5.43;;;;;;;15.27;68.59;93657.53;5098241;28;20110;-55
2022/08/04 00:45:03;;;;;;;7.22;5.07;;;;;;;15.09;69.75;93659.59;5095214;28;20032;-51
2022/08/04 00:47:32;;;;;;;8.57;5.22;;;;;;;15.02;70.35;93663.19;5102061;28;20066;-50
2022/08/04 00:50:22;;;;;;;5.25;4.22;;;;;;;15.12;70.08;93659.16;5098647;28;20401;-51
2022/08/04 00:53:06;;;;;;;5.35;4.50;;;;;;;15.25;69.51;93658.09;5093696;28;20184;-52
2022/08/04 00:55:58;;;;;;;5.55;4.72;;;;;;;15.25;69.32;93668.47;5100990;28;20039;-48
2022/08/04 00:58:46;;;;;;;6.90;5.57;;;;;;;15.18;70.06;93667.28;5097170;28;20042;-50
2022/08/04 01:01:32;;;;;;;11.50;5.93;;;;;;;15.27;69.46;93661.03;5102547;28;20531;-51
2022/08/04 01:04:39;;;;;;;7.20;5.65;;;;;;;15.11;70.01;93671.63;5122684;27;20050;-51
2022/08/04 01:07:28;;;;;;;8.45;6.53;;;;;;;15.04;70.63;93666.13;5076724;28;20039;-49
2022/08/04 01:10:23;;;;;;;8.90;5.82;;;;;;;15.17;70.16;93671.34;5096706;28;20043;-52
2022/08/04 01:13:05;;;;;;;6.20;5.28;;;;;;;15.17;70.53;93674.13;5100625;28;20118;-49
2022/08/04 01:15:53;;;;;;;8.32;5.32;;;;;;;15.04;71.07;93669.66;5105737;28;20552;-51
2022/08/04 01:18:48;;;;;;;6.95;5.38;;;;;;;15.15;71.22;93668.41;5092980;28;20040;-53
2022/08/04 01:21:28;;;;;;;6.80;5.63;;;;;;;15.14;71.46;93661.38;5091956;28;20036;-53
2022/08/04 01:24:03;;;;;;;7.70;7.00;;;;;;;15.09;70.85;93674.22;5095669;28;20086;-52
2022/08/04 01:26:49;;;;;;;8.73;7.63;;;;;;;15.06;70.40;93666.28;5096706;28;20052;-51
2022/08/04 01:29:15;;;;;;;11.05;4.90;;;;;;;15.18;69.84;93670.06;5104077;28;20028;-51
2022/08/04 01:31:45;;;;;;;5.65;5.03;;;;;;;15.01;70.10;93673.56;5096605;28;20036;-52
2022/08/04 01:34:12;;;;;;;7.93;7.20;;;;;;;14.81;71.51;93671.19;5103681;28;20031;-51
2022/08/04 01:36:44;;;;;;;6.53;5.53;;;;;;;14.76;71.87;93669.38;5101128;28;20040;-53
2022/08/04 01:41:55;;;;;;;7.13;6.60;;;;;;;14.89;69.96;93666.28;5096114;28;20057;-52
2022/08/04 01:44:20;;;;;;;5.95;4.63;;;;;;;15.00;69.18;93672.09;5094302;28;20094;-51
2022/08/04 01:46:49;;;;;;;5.30;4.47;;;;;;;15.06;68.76;93663.50;5095285;28;20103;-55
2022/08/04 01:49:15;;;;;;;6.90;4.03;;;;;;;14.94;68.97;93668.81;5096885;28;20020;-54
2022/08/04 01:51:43;;;;;;;9.40;4.10;;;;;;;14.78;69.22;93667.50;5097098;28;20036;-55
2022/08/04 01:54:09;;;;;;;11.00;4.50;;;;;;;14.83;69.30;93658.19;5099487;28;20036;-56
2022/08/04 01:56:35;;;;;;;25.92;5.60;;;;;;;14.75;68.95;93656.81;5095852;28;20019;-56
2022/08/04 01:59:01;;;;;;;13.45;4.95;;;;;;;14.64;69.57;93668.41;5098608;28;20176;-55
2022/08/04 02:01:27;;;;;;;13.48;5.40;;;;;;;14.63;69.50;93662.09;5105454;28;20031;-54
2022/08/04 02:03:52;;;;;;;8.20;4.60;;;;;;;14.72;69.17;93655.91;5102451;28;20051;-55
2022/08/04 02:06:40;;;;;;;6.55;3.80;;;;;;;14.83;69.12;93658.19;5102670;28;20074;-56
2022/08/04 02:09:15;;;;;;;10.50;5.18;;;;;;;14.71;69.41;93656.44;5126389;27;20487;-54
2022/08/04 02:11:45;;;;;;;8.10;4.90;;;;;;;14.66;69.69;93649.13;5103807;28;20044;-53
2022/08/04 02:14:52;;;;;;;5.38;4.18;;;;;;;14.56;69.56;93653.81;5102781;28;20020;-54
2022/08/04 02:17:42;;;;;;;6.72;4.35;;;;;;;14.52;69.49;93648.69;5059014;28;20027;-53
2022/08/04 02:20:10;;;;;;;11.43;4.35;;;;;;;14.39;69.44;93654.53;5062528;28;20036;-50
2022/08/04 02:23:01;;;;;;;7.20;4.47;;;;;;;14.20;69.83;93651.53;5092273;28;20051;-54
2022/08/04 02:25:28;;;;;;;6.53;4.72;;;;;;;14.20;70.21;93651.53;5102795;28;20044;-48
2022/08/04 02:28:17;;;;;;;5.35;4.85;;;;;;;14.12;70.57;93659.19;5100665;28;20027;-48
2022/08/04 02:31:08;;;;;;;6.88;5.57;;;;;;;14.24;71.11;93660.94;5099747;28;20047;-48
2022/08/04 02:33:46;;;;;;;5.95;4.47;;;;;;;14.26;70.50;93665.91;5102065;28;20535;-48
2022/08/04 02:36:30;;;;;;;4.82;4.25;;;;;;;14.33;71.28;93662.38;5100095;28;20115;-49
2022/08/04 02:38:58;;;;;;;5.25;4.75;;;;;;;14.23;70.94;93672.59;5102104;28;20082;-48
2022/08/04 02:41:26;;;;;;;5.40;5.00;;;;;;;14.25;70.78;93662.38;5103661;28;20030;-49
2022/08/04 02:43:55;;;;;;;4.22;3.92;;;;;;;14.49;69.42;93668.53;5104659;28;20062;-49
2022/08/04 02:46:21;;;;;;;23.42;21.83;;;;;;;14.53;69.59;93668.88;5091518;28;20067;-50
2022/08/04 02:48:48;;;;;;;3.75;3.42;;;;;;;14.63;68.80;93673.22;5098306;28;20104;-48
2022/08/04 02:51:14;;;;;;;12.48;4.07;;;;;;;14.62;68.92;93668.25;5100296;28;20084;-48
2022/08/04 02:53:41;;;;;;;5.53;5.03;;;;;;;14.39;69.58;93665.66;5101857;28;20028;-50
2022/08/04 02:56:08;;;;;;;6.97;4.22;;;;;;;14.32;69.79;93664.41;5100765;28;20385;-48
2022/08/04 02:58:34;;;;;;;6.28;5.60;;;;;;;14.20;70.11;93654.31;5102445;28;20082;-48
2022/08/04 03:01:00;;;;;;;12.10;4.45;;;;;;;14.20;70.49;93651.53;5102680;28;20031;-49
2022/08/04 03:03:51;;;;;;;4.18;3.78;;;;;;;14.16;70.25;93651.19;5100352;28;20024;-48
2022/08/04 03:06:25;;;;;;;4.22;3.72;;;;;;;14.26;69.71;93652.78;5126000;27;20042;-51
2022/08/04 03:09:17;;;;;;;4.88;4.13;;;;;;;14.24;69.79;93660.19;5103103;28;20027;-51
2022/08/04 03:11:50;;;;;;;3.92;3.55;;;;;;;14.23;69.36;93658.69;5107578;28;20047;-58
2022/08/04 03:14:46;;;;;;;4.32;3.92;;;;;;;14.19;69.45;93650.78;5104276;28;20040;-55
2022/08/04 03:17:43;;;;;;;3.95;3.55;;;;;;;14.07;70.11;93655.34;5112154;28;20032;-50
2022/08/04 03:20:08;;;;;;;3.72;3.38;;;;;;;14.05;69.77;93654.41;5110718;28;20027;-53
2022/08/04 03:23:02;;;;;;;5.93;4.18;;;;;;;14.08;69.78;93653.28;5105306;28;20165;-54
2022/08/04 03:25:55;;;;;;;5.32;3.83;;;;;;;14.03;70.09;93665.34;5090276;28;20109;-50
2022/08/04 03:28:47;;;;;;;5.18;3.97;;;;;;;13.99;70.19;93667.78;5090402;28;20028;-50
2022/08/04 03:31:31;;;;;;;4.57;4.18;;;;;;;14.14;69.90;93662.84;5079613;28;20569;-53
2022/08/04 03:34:14;;;;;;;6.20;4.50;;;;;;;14.12;69.90;93661.97;5090504;28;20110;-52
2022/08/04 03:37:03;;;;;;;5.70;5.10;;;;;;;13.97;70.74;93662.06;5090491;28;20173;-54
2022/08/04 03:39:50;;;;;;;5.90;5.35;;;;;;;14.00;70.75;93666.47;5086912;28;20044;-55
2022/08/04 03:42:44;;;;;;;6.47;5.72;;;;;;;13.86;71.34;93665.28;5092177;28;20042;-54
2022/08/04 03:45:38;;;;;;;7.47;6.35;;;;;;;13.82;71.99;93659.41;5094542;28;20054;-55
2022/08/04 03:48:13;;;;;;;10.95;6.47;;;;;;;13.64;73.37;93662.06;5098494;28;20420;-56
2022/08/04 03:53:50;;;;;;;10.40;7.25;;;;;;;14.03;72.59;93659.81;5112322;28;20038;-53
2022/08/04 03:56:15;;;;;;;10.63;5.90;;;;;;;13.99;72.61;93654.63;5111813;28;20058;-47
2022/08/04 03:58:58;;;;;;;5.25;4.75;;;;;;;14.13;72.16;93660.66;5111325;28;20539;-49
2022/08/04 04:01:54;;;;;;;8.23;3.88;;;;;;;14.15;70.82;93664.34;5110650;28;20028;-48
2022/08/04 04:04:45;;;;;;;8.57;4.40;;;;;;;14.21;69.49;93667.63;5112117;28;20031;-49
2022/08/04 04:07:31;;;;;;;8.25;3.35;;;;;;;14.11;69.33;93666.78;5110999;28;20062;-50
2022/08/04 04:10:12;;;;;;;6.25;4.43;;;;;;;14.15;69.22;93669.13;5111610;28;20030;-50
2022/08/04 04:13:05;;;;;;;4.53;4.13;;;;;;;14.24;69.23;93672.03;5111853;28;20512;-48
2022/08/04 04:16:03;;;;;;;6.22;4.22;;;;;;;14.19;69.84;93670.22;5110289;28;20031;-50
2022/08/04 04:18:53;;;;;;;8.23;3.95;;;;;;;14.21;69.92;93672.41;5108740;28;20041;-54
2022/08/04 04:21:24;;;;;;;5.88;5.05;;;;;;;14.17;70.35;93674.88;5105756;28;20042;-52
2022/08/04 04:23:58;;;;;;;7.50;5.43;;;;;;;14.20;70.98;93666.16;5094036;28;20028;-49
2022/08/04 04:26:39;;;;;;;6.88;5.47;;;;;;;14.27;71.37;93670.88;5092488;28;20176;-49
2022/08/04 04:29:22;;;;;;;8.77;5.50;;;;;;;14.44;70.87;93662.63;5100222;28;20028;-56
2022/08/04 04:32:13;;;;;;;7.05;4.80;;;;;;;14.56;70.93;93671.22;5101628;28;20036;-53
2022/08/04 04:35:04;;;;;;;4.72;4.30;;;;;;;14.54;71.69;93670.31;5093086;28;20036;-49
2022/08/04 04:37:45;;;;;;;5.30;4.40;;;;;;;14.74;72.19;93666.44;5088017;28;20482;-49
2022/08/04 04:40:38;;;;;;;5.93;5.30;;;;;;;14.86;72.04;93673.72;5088012;28;20114;-49
2022/08/04 04:43:13;;;;;;;6.18;5.55;;;;;;;14.99;71.98;93669.88;5101363;28;20442;-46
2022/08/04 04:46:00;;;;;;;9.23;5.28;;;;;;;15.17;72.22;93669.31;5105670;28;20084;-50
2022/08/04 04:48:57;;;;;;;6.07;5.28;;;;;;;15.30;72.06;93671.03;5107668;28;20067;-52
2022/08/04 04:51:32;;;;;;;7.40;6.00;;;;;;;15.40;71.97;93668.31;5109643;28;20034;-51
2022/08/04 04:54:12;;;;;;;5.95;4.80;;;;;;;15.54;71.85;93672.25;5109757;28;20035;-54
2022/08/04 04:57:16;;;;;;;5.50;4.90;;;;;;;15.69;71.27;93666.47;5109166;28;20088;-51
2022/08/04 04:59:56;;;;;;;9.23;5.07;;;;;;;15.79;71.19;93664.47;5102629;28;20053;-53
2022/08/04 05:02:40;;;;;;;5.47;4.97;;;;;;;15.79;71.94;93661.69;5099720;28;20020;-48
2022/08/04 05:05:25;;;;;;;5.90;4.93;;;;;;;15.80;72.73;93660.38;5100389;28;20034;-48
2022/08/04 05:07:57;;;;;;;6.05;5.22;;;;;;;15.74;73.28;93666.19;5098441;28;20503;-48
2022/08/04 05:10:46;;;;;;;6.53;4.68;;;;;;;15.84;73.12;93669.78;5100393;28;20020;-48
2022/08/04 05:13:36;;;;;;;5.10;4.63;;;;;;;16.01;72.49;93668.97;5099592;28;20530;-49
2022/08/04 05:16:23;;;;;;;7.25;4.53;;;;;;;16.09;73.13;93674.47;5110650;28;20011;-46
2022/08/04 05:18:58;;;;;;;8.02;5.28;;;;;;;16.17;72.79;93667.47;5109297;28;20041;-49
2022/08/04 05:21:40;;;;;;;8.90;6.43;;;;;;;16.34;72.65;93675.72;5109964;28;20027;-46
2022/08/04 05:24:08;;;;;;;8.38;6.20;;;;;;;16.38;72.51;93673.25;5124052;28;20496;-47
2022/08/04 05:26:38;;;;;;;15.00;6.97;;;;;;;16.50;72.62;93674.19;5109083;28;20043;-50
2022/08/04 05:29:10;;;;;;;13.43;7.18;;;;;;;16.65;72.36;93673.22;5105917;28;20106;-49
2022/08/04 05:31:40;;;;;;;10.85;8.63;;;;;;;16.72;72.78;93671.63;5091439;28;20024;-52
2022/08/04 05:34:19;;;;;;;9.57;8.25;;;;;;;16.85;72.81;93671.19;5096728;28;20568;-55
2022/08/04 05:36:56;;;;;;;9.43;7.22;;;;;;;16.99;72.19;93675.03;5099414;28;20110;-56
2022/08/04 05:39:25;;;;;;;7.75;6.07;;;;;;;17.06;71.48;93665.78;5097530;28;20504;-51
2022/08/04 05:41:51;;;;;;;;;;;;;;;17.29;71.88;93672.41;5105957;28;20574;-53
2022/08/04 05:44:18;;;;;;;14.00;6.47;;;;;;;17.37;72.26;93675.03;5106600;28;20135;-54
2022/08/04 05:46:46;;;;;;;6.75;5.60;;;;;;;17.46;70.91;93654.75;5108274;28;20020;-50
2022/08/04 05:49:11;;;;;;;9.17;6.37;;;;;;;17.72;70.54;93675.47;5104234;28;20035;-54
2022/08/04 05:51:37;;;;;;;13.52;5.80;;;;;;;17.86;69.38;93680.03;5101128;28;20020;-50
2022/08/04 05:54:04;;;;;;;5.60;5.10;;;;;;;18.03;68.21;93677.03;5105819;28;20015;-52
2022/08/04 05:56:32;;;;;;;10.88;6.55;;;;;;;18.13;68.44;93672.13;5112421;28;20020;-55
2022/08/04 05:58:59;;;;;;;8.75;7.13;;;;;;;18.22;68.82;93667.09;5108314;28;20020;-55
2022/08/04 06:01:25;;;;;;;11.07;6.88;;;;;;;18.26;68.73;93667.41;5092127;28;20027;-51
2022/08/04 06:03:52;;;;;;;8.98;6.18;;;;;;;18.29;67.20;93666.94;5095821;28;20052;-53
2022/08/04 06:06:18;;;;;;;5.80;5.20;;;;;;;18.37;67.04;93664.69;5102101;28;20020;-56
2022/08/04 06:08:43;;;;;;;8.27;5.47;;;;;;;18.50;66.00;93674.66;5103552;28;20015;-55
2022/08/04 06:11:11;;;;;;;6.78;5.20;;;;;;;18.58;65.33;93664.75;5105041;28;20023;-50
2022/08/04 06:13:42;;;;;;;7.70;5.70;;;;;;;18.66;64.81;93665.34;5100568;28;20503;-50
2022/08/04 06:16:10;;;;;;;8.13;5.80;;;;;;;18.82;64.03;93671.25;5107853;28;20038;-50
2022/08/04 06:18:37;;;;;;;7.65;5.60;;;;;;;18.92;64.55;93680.34;5107084;28;20030;-47
2022/08/04 06:21:03;;;;;;;5.97;5.38;;;;;;;19.06;64.68;93672.88;5103485;28;20011;-53
2022/08/04 06:23:30;;;;;;;9.48;5.72;;;;;;;19.19;64.74;93671.63;5105618;28;20204;-54
2022/08/04 06:25:58;;;;;;;7.13;5.53;;;;;;;19.30;63.76;93663.28;5107998;28;20047;-55
2022/08/04 06:28:24;;;;;;;7.25;5.82;;;;;;;19.42;64.12;93669.72;5104787;28;20024;-56
2022/08/04 06:30:51;;;;;;;7.70;5.60;;;;;;;19.55;64.11;93669.16;5097687;28;20587;-50
2022/08/04 06:33:26;;;;;;;6.68;5.97;;;;;;;19.61;64.09;93661.13;5106647;27;20476;-51
2022/08/04 06:35:55;;;;;;;8.23;4.85;;;;;;;19.77;63.92;93658.63;5103702;28;20742;-51
2022/08/04 06:38:24;;;;;;;8.95;4.85;;;;;;;20.05;62.95;93660.41;5099143;28;20031;-53
2022/08/04 06:40:50;;;;;;;7.30;4.93;;;;;;;20.27;61.79;93652.66;5096906;28;20024;-49
2022/08/04 06:43:16;;;;;;;7.22;6.53;;;;;;;20.44;60.55;93660.72;5111066;28;20390;-53
2022/08/04 06:45:43;;;;;;;6.70;5.97;;;;;;;20.76;60.92;93656.31;5111740;28;20069;-46
2022/08/04 06:48:11;;;;;;;5.40;4.90;;;;;;;21.05;59.69;93653.88;5111373;28;20120;-53
2022/08/04 06:50:37;;;;;;;;;;;;;;;21.26;59.31;93658.59;5103249;28;20019;-50
2022/08/04 06:53:03;;;;;;;7.50;5.03;;;;;;;21.47;57.08;93661.94;5108060;28;19918;-50
2022/08/04 06:55:35;;;;;;;9.13;6.05;;;;;;;21.58;57.23;93638.69;5099493;28;20031;-52
2022/08/04 06:58:01;;;;;;;10.13;5.68;;;;;;;21.96;56.18;93659.78;5107039;28;20038;-50
2022/08/04 07:00:27;;;;;;;11.65;7.05;;;;;;;22.27;53.82;93651.66;5099907;28;20106;-49
2022/08/04 07:02:53;;;;;;;13.30;9.07;;;;;;;22.54;52.94;93651.72;5096694;28;20517;-51
2022/08/04 07:05:19;;;;;;;10.23;6.85;;;;;;;22.60;52.10;93657.72;5090800;28;20016;-52
2022/08/04 07:07:45;;;;;;;8.13;4.80;;;;;;;22.69;51.50;93656.03;5091863;28;20089;-47
2022/08/04 07:10:11;;;;;;;5.35;4.40;;;;;;;22.66;52.31;93657.28;5100430;28;20019;-53
2022/08/04 07:12:38;;;;;;;5.57;4.60;;;;;;;22.75;52.87;93650.72;5110685;28;20407;-59
2022/08/04 07:15:05;;;;;;;8.60;4.22;;;;;;;22.79;52.04;93655.81;5104790;28;20493;-53
2022/08/04 07:17:31;;;;;;;5.55;4.00;;;;;;;23.03;51.76;93651.44;5095555;28;20024;-50
2022/08/04 07:19:57;;;;;;;4.60;4.10;;;;;;;23.08;51.77;93650.31;5091932;28;20020;-51
2022/08/04 07:22:25;;;;;;;4.90;4.07;;;;;;;23.38;51.26;93646.22;5110333;28;20420;-50
2022/08/04 07:24:54;;;;;;;4.00;3.57;;;;;;;23.60;50.31;93652.22;5112448;28;20051;-48
2022/08/04 07:27:19;;;;;;;4.90;4.15;;;;;;;23.74;51.47;93656.47;5107559;28;20023;-51
2022/08/04 07:29:46;;;;;;;3.35;3.05;;;;;;;23.88;49.53;93645.13;5107868;28;20451;-60
2022/08/04 07:32:12;;;;;;;5.10;3.60;;;;;;;24.00;48.42;93648.53;5101567;28;20043;-55
2022/08/04 07:34:38;;;;;;;7.60;3.63;;;;;;;23.94;48.73;93634.88;5099435;28;20020;-54
2022/08/04 07:37:03;;;;;;;4.40;3.30;;;;;;;24.18;48.46;93646.59;5090492;28;20016;-50
2022/08/04 07:39:35;;;;;;;5.78;3.38;;;;;;;24.59;47.69;93647.09;5107775;28;20031;-53
2022/08/04 07:42:02;;;;;;;4.10;3.50;;;;;;;24.75;48.56;93635.84;5094497;28;20690;-48
2022/08/04 07:44:31;;;;;;;3.17;2.88;;;;;;;24.94;46.58;93651.47;5090825;28;20043;-55
2022/08/04 07:46:57;;;;;;;3.53;2.40;;;;;;;25.00;46.49;93655.28;5096730;28;20055;-54
2022/08/04 07:49:25;;;;;;;3.35;2.65;;;;;;;25.19;45.71;93648.31;5112211;28;20408;-49
2022/08/04 07:51:51;;;;;;;4.70;2.72;;;;;;;25.46;45.28;93648.84;5111773;28;20023;-49
2022/08/04 07:54:17;;;;;;;2.55;2.35;;;;;;;25.82;43.92;93646.78;5110614;28;20080;-59
2022/08/04 07:56:43;;;;;;;3.80;3.08;;;;;;;25.76;46.16;93654.28;5111600;28;20072;-58
2022/08/04 07:59:08;;;;;;;4.43;3.15;;;;;;;25.99;46.59;93648.16;5101977;28;20028;-59
2022/08/04 08:01:35;;;;;;;3.67;2.92;;;;;;;26.73;45.30;93648.25;5090371;28;20392;-59
2022/08/04 08:04:01;;;;;;;2.50;2.30;;;;;;;26.92;43.73;93641.88;5096369;28;20463;-57
2022/08/04 08:06:28;;;;;;;4.63;3.45;;;;;;;27.14;43.41;93641.94;5099062;28;20016;-54
2022/08/04 08:08:54;;;;;;;5.25;2.55;;;;;;;27.55;41.81;93638.44;5096971;28;20468;-57
2022/08/04 08:11:20;;;;;;;2.90;2.63;;;;;;;27.62;40.48;93645.78;5101665;28;20020;-57
2022/08/04 08:13:46;;;;;;;2.92;2.42;;;;;;;27.79;41.49;93645.66;5098533;28;20024;-53
2022/08/04 08:16:12;;;;;;;2.33;2.13;;;;;;;27.30;40.63;93650.31;5096723;28;20032;-57
2022/08/04 08:18:37;;;;;;;2.70;2.33;;;;;;;27.29;41.11;93663.03;5101219;28;20023;-55
2022/08/04 08:21:03;;;;;;;2.92;2.40;;;;;;;27.42;41.12;93662.81;5110115;28;20390;-50
2022/08/04 08:23:30;;;;;;;3.40;2.40;;;;;;;27.71;41.54;93659.56;5106001;28;20023;-55
2022/08/04 08:25:56;;;;;;;8.50;6.82;;;;;;;27.66;38.37;93660.09;5100231;28;20040;-57
2022/08/04 08:28:22;;;;;;;3.38;3.08;;;;;;;27.02;40.90;93652.88;5110976;28;20623;-59
2022/08/04 08:30:48;;;;;;;3.15;2.45;;;;;;;26.73;40.92;93664.53;5105635;28;20081;-54
2022/08/04 08:33:14;;;;;;;3.75;2.53;;;;;;;26.59;41.63;93661.16;5106027;28;20414;-59
2022/08/04 08:35:45;;;;;;;7.40;2.55;;;;;;;26.51;41.63;93667.22;5093539;28;20021;-49
2022/08/04 08:38:13;;;;;;;3.00;2.55;;;;;;;26.50;42.19;93668.59;5090817;28;20463;-51
2022/08/04 08:41:03;;;;;;;4.15;2.45;;;;;;;26.55;42.14;93667.38;5089283;28;20057;-59
2022/08/04 08:43:39;;;;;;;3.95;3.55;;;;;;;27.86;41.16;93663.59;5098485;28;20051;-55
2022/08/04 08:46:42;;;;;;;2.80;2.53;;;;;;;28.28;39.56;93662.19;5091393;28;20020;-58
2022/08/04 08:49:30;;;;;;;2.55;2.25;;;;;;;28.53;39.47;93663.63;5090426;28;20032;-61
2022/08/04 08:52:17;;;;;;;4.60;2.45;;;;;;;29.29;38.51;93661.63;5106034;28;20026;-60
2022/08/04 08:55:07;;;;;;;4.38;2.60;;;;;;;30.23;36.51;93664.13;5100055;28;20548;-58
2022/08/04 08:58:08;;;;;;;6.22;5.03;;;;;;;29.99;35.32;93661.41;5101971;28;20027;-51
2022/08/04 09:01:10;;;;;;;3.17;2.63;;;;;;;29.94;34.61;93662.72;5105354;28;20047;-51
2022/08/04 09:03:50;;;;;;;3.08;2.88;;;;;;;30.03;34.81;93657.94;5102823;28;20020;-57
2022/08/04 09:06:41;;;;;;;2.95;2.30;;;;;;;29.56;33.46;93658.81;5096907;28;20595;-53
2022/08/04 09:09:12;;;;;;;4.15;2.47;;;;;;;29.20;36.03;93658.56;5121510;27;20106;-54
2022/08/04 09:11:49;;;;;;;11.77;3.15;;;;;;;28.94;37.26;93663.47;5098581;28;20133;-56
2022/08/04 09:14:39;;;;;;;2.83;2.13;;;;;;;28.98;35.94;93655.06;5099761;28;20027;-56
2022/08/04 09:17:12;;;;;;;2.40;2.20;;;;;;;29.56;35.81;93647.44;5097475;28;20062;-56
2022/08/04 09:20:02;;;;;;;3.35;2.03;;;;;;;30.83;33.81;93641.28;5094918;28;20031;-60
2022/08/04 09:22:47;;;;;;;2.85;1.90;;;;;;;30.71;32.47;93636.78;5102029;28;20058;-59
2022/08/04 09:25:27;;;;;;;2.08;1.83;;;;;;;30.07;31.55;93640.22;5087758;28;20547;-60
2022/08/04 09:27:58;;;;;;;2.50;1.92;;;;;;;29.16;32.28;93638.56;5121548;28;20047;-53
2022/08/04 09:30:47;;;;;;;2.35;2.15;;;;;;;29.00;34.41;93646.59;5097967;28;20464;-54
2022/08/04 09:33:17;;;;;;;;;;;;;;;29.54;34.41;93643.84;5098979;28;20032;-57
2022/08/04 09:35:56;;;;;;;5.30;3.10;;;;;;;29.56;32.45;93638.91;5098823;28;19920;-57
2022/08/04 09:38:34;;;;;;;3.80;2.22;;;;;;;29.33;32.09;93636.88;5098085;28;20031;-56
2022/08/04 09:41:31;;;;;;;4.90;2.88;;;;;;;29.11;33.25;93636.97;5107228;28;20036;-57
2022/08/04 09:43:59;;;;;;;4.43;3.78;;;;;;;29.65;33.42;93637.72;5106998;28;20031;-55
2022/08/04 09:46:34;;;;;;;4.97;4.15;;;;;;;30.40;32.25;93628.22;5108071;28;20122;-59
2022/08/04 09:49:16;;;;;;;3.20;2.92;;;;;;;30.12;30.87;93630.38;5105611;28;20042;-55
2022/08/04 09:51:54;;;;;;;4.97;3.15;;;;;;;29.74;30.49;93627.31;5094402;28;20032;-52
2022/08/04 09:54:28;;;;;;;5.50;4.30;;;;;;;29.37;32.82;93631.28;5095320;28;20038;-54
2022/08/04 09:57:14;;;;;;;7.07;4.25;;;;;;;28.97;31.43;93630.88;5101164;28;20043;-50
2022/08/04 09:59:52;;;;;;;6.47;5.38;;;;;;;28.54;30.62;93643.09;5096819;28;20039;-51
2022/08/04 10:02:18;;;;;;;;;;;;;;;28.28;31.72;93642.31;5103592;28;20489;-55
2022/08/04 10:04:44;;;;;;;4.95;4.20;;;;;;;28.04;31.26;93640.78;5101908;28;19937;-50
2022/08/04 10:07:57;;;;;;;9.80;6.13;;;;;;;27.99;31.82;93637.09;5097459;28;20027;-52
2022/08/04 10:10:33;;;;;;;4.43;4.03;;;;;;;28.45;33.46;93635.00;5089043;28;20036;-53
2022/08/04 10:13:14;;;;;;;3.17;2.90;;;;;;;28.49;32.64;93638.69;5109111;28;20061;-51
2022/08/04 10:15:50;;;;;;;3.40;2.70;;;;;;;28.49;32.90;93637.97;5110107;28;20027;-59
2022/08/04 10:18:21;;;;;;;3.92;3.53;;;;;;;28.34;32.35;93636.81;5110644;28;20038;-52
2022/08/04 10:21:09;;;;;;;3.47;2.83;;;;;;;28.12;31.98;93638.22;5111291;28;20028;-52
2022/08/04 10:23:57;;;;;;;;;;;;;;;27.91;33.17;93631.16;5108062;28;20031;-57
2022/08/04 10:26:57;;;;;;;8.73;3.10;;;;;;;27.70;33.10;93634.69;5105896;28;20312;-57
2022/08/04 10:29:40;;;;;;;7.53;2.58;;;;;;;27.87;34.26;93630.28;5093024;28;20585;-58
2022/08/04 10:32:10;;;;;;;4.88;2.75;;;;;;;27.84;33.37;93637.28;5098030;28;20459;-56
2022/08/04 10:35:15;;;;;;;3.70;2.88;;;;;;;27.96;32.39;93629.16;5101787;28;20023;-59
2022/08/04 10:38:18;;;;;;;4.00;2.88;;;;;;;29.75;32.78;93620.97;5112677;27;20031;-59
2022/08/04 10:41:01;;;;;;;3.42;3.13;;;;;;;31.83;27.81;93625.47;5113160;28;20020;-59
2022/08/04 10:44:01;;;;;;;2.10;1.90;;;;;;;33.21;25.08;93615.44;5109168;28;20040;-59
2022/08/04 10:46:34;;;;;;;2.30;2.10;;;;;;;34.72;23.49;93616.88;5096472;28;20604;-60
2022/08/04 10:49:08;;;;;;;5.28;2.88;;;;;;;36.04;22.65;93618.84;5096506;28;20031;-59
2022/08/04 10:51:50;;;;;;;2.85;2.00;;;;;;;36.65;22.41;93616.00;5098685;28;20028;-59
2022/08/04 10:54:26;;;;;;;2.33;2.13;;;;;;;35.54;22.50;93619.44;5110122;28;20504;-59
2022/08/04 10:56:54;;;;;;;3.22;1.98;;;;;;;34.17;22.99;93600.69;5111610;28;20084;-58
2022/08/04 10:59:32;;;;;;;2.13;1.92;;;;;;;34.31;23.93;93612.25;5091266;28;20026;-59
2022/08/04 11:02:04;;;;;;;2.80;1.73;;;;;;;35.28;23.34;93610.72;5088626;28;20125;-60
2022/08/04 11:04:50;;;;;;;7.63;2.28;;;;;;;35.76;21.70;93607.28;5089097;28;20032;-59
2022/08/04 11:07:16;;;;;;;2.08;1.88;;;;;;;36.27;23.45;93596.59;5074144;28;20493;-60
2022/08/04 11:09:43;;;;;;;1.58;1.45;;;;;;;36.56;22.36;93600.22;5089156;28;20027;-59
2022/08/04 11:12:22;;;;;;;4.50;1.92;;;;;;;36.99;19.15;93602.28;5090345;28;20089;-59
2022/08/04 11:15:06;;;;;;;2.63;1.60;;;;;;;37.05;19.10;93598.69;5088969;28;20028;-61
2022/08/04 11:17:35;;;;;;;2.20;2.00;;;;;;;36.04;20.73;93598.03;5091880;28;20081;-59
2022/08/04 11:20:14;;;;;;;1.67;1.58;;;;;;;35.47;20.89;93589.28;5090179;28;20390;-59
2022/08/04 11:22:46;;;;;;;5.65;2.17;;;;;;;34.02;21.11;93597.00;5096452;28;20504;-60
2022/08/04 11:25:28;;;;;;;2.17;2.00;;;;;;;33.29;22.74;93595.50;5090683;28;20540;-61
2022/08/04 11:27:57;;;;;;;3.53;2.60;;;;;;;32.54;23.98;93585.22;5091053;28;20028;-60
2022/08/04 11:30:24;;;;;;;2.20;2.00;;;;;;;31.72;25.03;93589.59;5091630;28;20027;-59
2022/08/04 11:33:07;;;;;;;1.80;1.70;;;;;;;31.20;26.47;93581.50;5095122;28;20026;-58
2022/08/04 11:36:01;;;;;;;2.15;1.95;;;;;;;30.60;27.87;93592.34;5096797;28;20028;-59
2022/08/04 11:38:49;;;;;;;2.22;2.03;;;;;;;30.01;27.38;93592.41;5091945;28;20073;-59
2022/08/04 11:41:19;;;;;;;7.57;4.80;;;;;;;30.30;29.32;93588.81;5108507;28;20036;-59
2022/08/04 11:43:59;;;;;;;2.30;2.10;;;;;;;30.94;26.66;93580.25;5104976;28;20028;-59
2022/08/04 11:46:47;;;;;;;1.90;1.80;;;;;;;31.31;26.19;93583.13;5094260;28;20055;-59
2022/08/04 11:49:28;;;;;;;8.27;2.15;;;;;;;31.55;24.91;93577.16;5122309;27;20023;-59
2022/08/04 11:51:56;;;;;;;2.05;1.92;;;;;;;31.33;25.97;93577.47;5104929;28;20030;-59
2022/08/04 11:54:21;;;;;;;4.70;2.65;;;;;;;31.12;25.73;93569.22;5104023;28;20015;-59
2022/08/04 11:56:47;;;;;;;2.33;1.98;;;;;;;30.73;26.00;93576.25;5104081;28;20404;-60
2022/08/04 11:59:13;;;;;;;1.80;1.70;;;;;;;30.08;27.16;93570.50;5098477;28;20023;-57
2022/08/04 12:02:00;;;;;;;3.50;2.10;;;;;;;29.57;29.16;93574.94;5103732;28;20510;-59
2022/08/04 12:04:49;;;;;;;1.83;1.73;;;;;;;29.40;29.34;93569.50;5104348;28;20024;-59
2022/08/04 12:07:41;;;;;;;2.22;2.03;;;;;;;29.12;29.58;93573.03;5100754;28;20031;-59
2022/08/04 12:10:17;;;;;;;4.53;2.78;;;;;;;29.02;29.69;93563.50;5090024;28;20454;-60
2022/08/04 12:12:53;;;;;;;2.45;2.25;;;;;;;29.40;30.10;93564.53;5104871;28;20020;-60
2022/08/04 12:15:39;;;;;;;2.60;2.40;;;;;;;30.05;29.17;93557.59;5096644;28;20031;-60
2022/08/04 12:18:29;;;;;;;3.25;2.03;;;;;;;30.67;28.44;93551.16;5102464;28;20023;-59
2022/08/04 12:21:00;;;;;;;3.17;1.75;;;;;;;30.89;28.04;93550.94;5107006;28;20424;-59
2022/08/04 12:23:31;;;;;;;1.80;1.70;;;;;;;30.99;27.10;93551.13;5096554;28;20028;-59